Time;durP1;ratioP1;P1;durP2;ratioP2;P2;SDS_P1;SDS_P2;PMS_P1;PMS_P2;Temp;Humidity;BMP_temperature;BMP_pressure;BME280_temperature;BME280_humidity;BME280_pressure;Samples;Min_cycle;Max_cycle;Signal;HPM_P1;HPM_P2
2023/11/06 00:01:49;;;;;;;4.13;3.20;;;11.10;99.90;;;;;;5053656;28;20175;-71
2023/11/06 00:04:14;;;;;;;4.00;3.40;;;11.10;99.90;;;;;;5035962;28;20193;-71
2023/11/06 00:06:40;;;;;;;8.17;3.77;;;11.00;99.90;;;;;;5053274;28;20178;-71
2023/11/06 00:09:06;;;;;;;8.53;3.93;;;11.00;99.90;;;;;;5053870;28;20707;-71
2023/11/06 00:11:31;;;;;;;7.40;3.60;;;10.90;99.90;;;;;;5053790;28;20644;-71
2023/11/06 00:13:58;;;;;;;4.97;3.90;;;10.80;99.90;;;;;;5053023;28;20676;-70
2023/11/06 00:16:25;;;;;;;6.23;3.57;;;10.80;99.90;;;;;;5053387;28;20199;-71
2023/11/06 00:18:50;;;;;;;6.30;3.30;;;10.70;99.90;;;;;;5053493;28;20215;-71
2023/11/06 00:21:17;;;;;;;7.63;3.73;;;10.70;99.90;;;;;;5053560;28;20210;-71
2023/11/06 00:23:42;;;;;;;6.53;3.20;;;10.70;99.90;;;;;;5053677;28;20194;-71
2023/11/06 00:26:11;;;;;;;4.47;3.33;;;10.70;99.90;;;;;;5053282;28;20541;-71
2023/11/06 00:28:37;;;;;;;6.17;3.53;;;10.60;99.90;;;;;;5053514;28;20559;-71
2023/11/06 00:31:03;;;;;;;8.00;3.10;;;10.60;99.90;;;;;;5053398;28;20212;-70
2023/11/06 00:33:28;;;;;;;10.37;3.00;;;10.70;99.90;;;;;;5035337;28;20562;-71
2023/11/06 00:35:54;;;;;;;5.63;3.40;;;10.80;99.90;;;;;;5052892;28;20297;-71
2023/11/06 00:38:20;;;;;;;4.40;3.33;;;10.90;99.90;;;;;;5053236;28;20174;-71
2023/11/06 00:40:45;;;;;;;6.40;3.60;;;10.90;99.90;;;;;;5052920;28;20264;-71
2023/11/06 00:43:12;;;;;;;5.87;3.47;;;10.90;99.90;;;;;;5053140;28;20250;-71
2023/11/06 00:45:37;;;;;;;5.37;3.30;;;10.90;99.90;;;;;;5052748;28;20194;-71
2023/11/06 00:48:04;;;;;;;4.90;3.50;;;11.00;99.90;;;;;;5052796;28;20171;-71
2023/11/06 00:50:30;;;;;;;4.03;3.30;;;10.90;99.90;;;;;;5052929;28;20175;-71
2023/11/06 00:52:58;;;;;;;4.13;3.43;;;10.90;99.90;;;;;;5053020;28;20477;-72
2023/11/06 00:55:25;;;;;;;3.90;3.60;;;11.00;99.90;;;;;;5053153;28;20194;-71
2023/11/06 00:57:51;;;;;;;6.07;3.37;;;10.90;99.90;;;;;;5052441;28;20178;-71
2023/11/06 01:00:18;;;;;;;8.43;4.67;;;10.90;99.90;;;;;;5052241;28;20575;-71
2023/11/06 01:02:43;;;;;;;5.07;3.30;;;10.90;99.90;;;;;;5034915;28;20732;-71
2023/11/06 01:05:09;;;;;;;4.03;3.20;;;10.90;99.90;;;;;;5052870;28;20269;-70
2023/11/06 01:07:34;;;;;;;3.97;3.23;;;10.90;99.90;;;;;;5052682;28;20644;-71
2023/11/06 01:10:01;;;;;;;7.93;3.30;;;10.90;99.90;;;;;;5052730;28;20257;-70
2023/11/06 01:12:26;;;;;;;9.60;3.53;;;11.00;99.90;;;;;;5053315;28;20604;-71
2023/11/06 01:14:52;;;;;;;4.40;3.60;;;11.00;99.90;;;;;;5053369;28;20286;-71
2023/11/06 01:17:17;;;;;;;5.17;4.00;;;11.10;99.90;;;;;;5053206;28;20171;-70
2023/11/06 01:19:43;;;;;;;4.40;3.53;;;11.10;99.90;;;;;;5053433;28;20226;-70
2023/11/06 01:22:09;;;;;;;4.13;3.40;;;11.10;99.90;;;;;;5053441;28;20182;-70
2023/11/06 01:24:34;;;;;;;8.73;3.60;;;11.10;99.90;;;;;;5053162;28;20186;-71
2023/11/06 01:27:00;;;;;;;6.50;4.30;;;11.20;99.90;;;;;;5052205;28;20258;-71
2023/11/06 01:29:26;;;;;;;6.17;4.37;;;11.20;99.90;;;;;;5053321;28;20174;-71
2023/11/06 01:31:51;;;;;;;4.53;4.13;;;11.20;99.90;;;;;;5053140;28;20236;-72
2023/11/06 01:34:17;;;;;;;4.93;3.87;;;11.20;99.90;;;;;;5053464;28;20524;-71
2023/11/06 01:36:45;;;;;;;4.70;3.87;;;11.10;99.90;;;;;;5052827;28;20258;-71
2023/11/06 01:39:11;;;;;;;5.30;3.23;;;11.10;99.90;;;;;;5053182;28;20206;-70
2023/11/06 01:41:38;;;;;;;7.83;3.77;;;10.90;99.90;;;;;;5052691;28;20178;-71
2023/11/06 01:44:05;;;;;;;7.23;3.40;;;10.60;99.90;;;;;;5053047;28;20194;-72
2023/11/06 01:46:31;;;;;;;3.93;3.53;;;10.40;99.90;;;;;;5051866;28;20174;-71
2023/11/06 01:48:59;;;;;;;6.43;4.57;;;10.30;99.90;;;;;;5052674;28;20582;-71
2023/11/06 01:51:26;;;;;;;4.17;3.70;;;10.10;99.90;;;;;;5052009;28;20171;-71
2023/11/06 01:53:54;;;;;;;6.00;3.93;;;10.00;99.90;;;;;;5052028;28;20218;-70
2023/11/06 01:56:19;;;;;;;7.00;4.23;;;9.90;99.90;;;;;;5051542;28;20175;-70
2023/11/06 01:58:46;;;;;;;6.87;3.73;;;9.90;99.90;;;;;;5051734;28;20662;-70
2023/11/06 02:01:12;;;;;;;4.93;4.13;;;9.80;99.90;;;;;;5051689;28;20163;-71
2023/11/06 02:03:39;;;;;;;5.73;3.80;;;9.70;99.90;;;;;;5050577;28;20663;-70
2023/11/06 02:06:06;;;;;;;7.10;3.97;;;9.70;99.90;;;;;;5051756;28;20659;-69
2023/11/06 02:08:32;;;;;;;6.83;4.00;;;9.60;99.90;;;;;;5051403;28;20205;-70
2023/11/06 02:11:01;;;;;;;4.33;3.70;;;9.60;99.90;;;;;;5051191;28;20623;-70
2023/11/06 02:13:27;;;;;;;6.33;3.87;;;9.60;99.90;;;;;;5051578;28;20253;-69
2023/11/06 02:15:58;;;;;;;5.07;4.13;;;9.60;99.90;;;;;;5051101;28;20507;-69
2023/11/06 02:18:23;;;;;;;3.87;3.47;;;9.60;99.90;;;;;;5051614;28;20533;-70
2023/11/06 02:20:55;;;;;;;6.57;3.80;;;9.70;99.90;;;;;;5051270;28;20739;-69
2023/11/06 02:23:27;;;;;;;8.57;3.90;;;9.70;99.90;;;;;;5051484;28;20530;-70
2023/11/06 02:25:54;;;;;;;6.03;3.60;;;9.80;99.90;;;;;;5050626;28;20265;-70
2023/11/06 02:28:21;;;;;;;4.00;3.60;;;9.80;99.90;;;;;;5051348;28;20250;-70
2023/11/06 02:30:51;;;;;;;3.67;3.20;;;9.90;99.90;;;;;;5051039;28;20179;-70
2023/11/06 02:33:18;;;;;;;5.03;3.90;;;9.90;99.90;;;;;;5051370;28;20694;-70
2023/11/06 02:35:43;;;;;;;5.53;3.50;;;9.90;99.90;;;;;;5050926;28;20198;-69
2023/11/06 02:38:09;;;;;;;7.17;3.37;;;9.90;99.90;;;;;;5050843;28;20179;-69
2023/11/06 02:40:34;;;;;;;4.73;3.97;;;9.90;99.90;;;;;;5050799;28;20209;-69
2023/11/06 02:43:00;;;;;;;4.60;3.20;;;9.90;99.90;;;;;;5051082;28;20648;-69
2023/11/06 02:45:25;;;;;;;6.23;4.07;;;9.90;99.90;;;;;;5051245;28;20190;-70
2023/11/06 02:47:51;;;;;;;6.63;3.97;;;9.90;99.90;;;;;;5051333;28;20652;-69
2023/11/06 02:50:17;;;;;;;4.00;3.50;;;9.90;99.90;;;;;;5051418;28;20209;-70
2023/11/06 02:52:42;;;;;;;6.03;3.60;;;9.90;99.90;;;;;;5050786;28;20167;-69
2023/11/06 02:55:08;;;;;;;3.47;3.23;;;9.90;99.90;;;;;;5050675;28;20355;-72
2023/11/06 02:57:34;;;;;;;5.40;3.70;;;10.00;99.90;;;;;;5050723;28;20537;-70
2023/11/06 03:00:01;;;;;;;4.27;3.70;;;10.00;99.90;;;;;;5050965;28;20283;-69
2023/11/06 03:02:27;;;;;;;4.17;3.63;;;10.00;99.90;;;;;;5050985;28;20365;-71
2023/11/06 03:04:53;;;;;;;4.53;3.53;;;10.00;99.90;;;;;;5050465;28;20217;-69
2023/11/06 03:07:19;;;;;;;5.67;3.40;;;10.00;99.90;;;;;;5050668;28;20644;-69
2023/11/06 03:09:45;;;;;;;4.77;3.47;;;10.00;99.90;;;;;;5050811;28;20590;-70
2023/11/06 03:12:11;;;;;;;5.40;3.50;;;10.00;99.90;;;;;;5050876;28;20163;-70
2023/11/06 03:14:37;;;;;;;6.40;3.60;;;10.00;99.90;;;;;;5050587;28;20278;-70
2023/11/06 03:17:02;;;;;;;6.27;3.87;;;10.00;99.90;;;;;;5050602;28;20174;-70
2023/11/06 03:19:29;;;;;;;3.70;3.40;;;10.00;99.90;;;;;;5050675;28;20226;-70
2023/11/06 03:21:54;;;;;;;5.63;3.70;;;10.00;99.90;;;;;;5050644;28;20182;-70
2023/11/06 03:24:20;;;;;;;5.20;3.67;;;10.00;99.90;;;;;;5050716;28;20186;-70
2023/11/06 03:26:46;;;;;;;10.57;3.67;;;10.00;99.90;;;;;;5050173;28;20193;-70
2023/11/06 03:29:11;;;;;;;7.77;3.70;;;10.00;99.90;;;;;;5050837;28;20656;-70
2023/11/06 03:31:37;;;;;;;5.20;3.90;;;10.00;99.90;;;;;;5050477;28;20221;-69
2023/11/06 03:34:03;;;;;;;6.83;3.73;;;10.00;99.90;;;;;;5050681;28;20198;-69
2023/11/06 03:36:29;;;;;;;7.77;4.00;;;10.00;99.90;;;;;;5050455;28;20171;-70
2023/11/06 03:38:54;;;;;;;4.10;3.63;;;10.00;99.90;;;;;;5050521;28;20228;-70
2023/11/06 03:41:20;;;;;;;5.50;3.90;;;10.10;99.90;;;;;;5050821;28;20265;-70
2023/11/06 03:43:51;;;;;;;5.63;4.33;;;10.00;99.90;;;;;;5050430;28;20183;-70
2023/11/06 03:46:18;;;;;;;7.23;3.70;;;10.00;99.90;;;;;;5050722;28;20166;-71
2023/11/06 03:48:43;;;;;;;3.83;3.50;;;10.00;99.90;;;;;;5050735;28;20174;-70
2023/11/06 03:51:09;;;;;;;5.23;3.30;;;10.00;99.90;;;;;;5054324;28;20175;-70
2023/11/06 03:53:35;;;;;;;3.60;3.20;;;10.00;99.90;;;;;;5053898;28;20182;-70
2023/11/06 03:56:00;;;;;;;6.00;5.27;;;10.00;99.90;;;;;;5053898;28;20775;-70
2023/11/06 03:58:26;;;;;;;5.20;3.70;;;10.00;99.90;;;;;;5054161;28;20171;-70
2023/11/06 04:00:51;;;;;;;5.93;3.57;;;10.10;99.90;;;;;;5053435;28;20210;-70
2023/11/06 04:03:17;;;;;;;4.83;3.30;;;10.00;99.90;;;;;;5054106;28;20229;-71
2023/11/06 04:05:44;;;;;;;3.43;3.13;;;10.10;99.90;;;;;;5053738;28;20190;-70
2023/11/06 04:08:09;;;;;;;7.57;3.80;;;10.10;99.90;;;;;;5054223;28;20171;-69
2023/11/06 04:10:36;;;;;;;5.53;3.57;;;10.10;99.90;;;;;;5053884;28;20261;-71
2023/11/06 04:13:02;;;;;;;4.83;3.50;;;10.10;99.90;;;;;;5053786;28;20250;-68
2023/11/06 04:15:28;;;;;;;5.20;3.73;;;10.10;99.90;;;;;;5053524;28;20294;-70
2023/11/06 04:17:53;;;;;;;4.40;3.70;;;10.10;99.90;;;;;;5053721;28;20258;-69
2023/11/06 04:20:19;;;;;;;4.40;4.00;;;10.10;99.90;;;;;;5053750;28;20194;-70
2023/11/06 04:22:45;;;;;;;7.43;4.10;;;10.10;99.90;;;;;;5053550;28;20241;-70
2023/11/06 04:25:10;;;;;;;7.00;3.77;;;10.10;99.90;;;;;;5053514;28;20182;-69
2023/11/06 04:27:36;;;;;;;5.23;3.97;;;10.10;99.90;;;;;;5053653;28;20251;-71
2023/11/06 04:30:02;;;;;;;7.90;4.10;;;10.20;99.90;;;;;;5053714;28;20250;-71
2023/11/06 04:32:28;;;;;;;8.13;3.50;;;10.20;99.90;;;;;;5053743;28;20780;-70
2023/11/06 04:34:53;;;;;;;6.50;3.47;;;10.20;99.90;;;;;;5053574;28;20225;-71
2023/11/06 04:37:19;;;;;;;9.40;3.80;;;10.20;99.90;;;;;;5053411;28;20710;-70
2023/11/06 04:39:44;;;;;;;6.20;4.13;;;10.20;99.90;;;;;;5053187;28;20202;-71
2023/11/06 04:42:10;;;;;;;11.67;4.03;;;10.20;99.90;;;;;;5053257;28;20179;-70
2023/11/06 04:44:39;;;;;;;4.97;4.03;;;10.20;99.90;;;;;;5053162;28;20224;-70
2023/11/06 04:47:04;;;;;;;5.87;4.13;;;10.20;99.90;;;;;;5053198;28;20182;-70
2023/11/06 04:49:30;;;;;;;8.67;4.00;;;10.20;99.90;;;;;;5052977;28;20648;-69
2023/11/06 04:51:57;;;;;;;10.27;3.90;;;10.10;99.90;;;;;;5053041;28;20589;-70
2023/11/06 04:54:22;;;;;;;5.67;4.03;;;10.10;99.90;;;;;;5053274;28;20191;-69
2023/11/06 04:56:48;;;;;;;10.43;4.07;;;10.10;99.90;;;;;;5052656;28;20305;-70
2023/11/06 04:59:14;;;;;;;10.33;3.67;;;10.10;99.90;;;;;;5052974;28;20205;-70
2023/11/06 05:01:40;;;;;;;9.50;4.10;;;10.00;99.90;;;;;;5052747;28;20182;-69
2023/11/06 05:04:06;;;;;;;7.43;5.00;;;10.00;99.90;;;;;;5053307;28;20190;-71
2023/11/06 05:06:32;;;;;;;11.07;4.40;;;10.00;99.90;;;;;;5052745;28;20190;-70
2023/11/06 05:08:58;;;;;;;11.63;4.17;;;10.00;99.90;;;;;;5052756;28;20595;-70
2023/11/06 05:11:24;;;;;;;9.83;4.03;;;10.10;99.90;;;;;;5052764;28;20174;-71
2023/11/06 05:13:51;;;;;;;10.80;5.17;;;10.20;99.90;;;;;;5052575;28;20252;-70
2023/11/06 05:16:17;;;;;;;8.70;4.30;;;10.20;99.90;;;;;;5052508;28;20262;-70
2023/11/06 05:18:43;;;;;;;9.90;5.27;;;10.30;99.90;;;;;;5052346;28;20249;-70
2023/11/06 05:21:09;;;;;;;9.33;4.40;;;10.30;99.90;;;;;;5052343;28;20740;-69
2023/11/06 05:23:34;;;;;;;12.90;3.70;;;10.30;99.90;;;;;;5052113;28;20167;-70
2023/11/06 05:26:00;;;;;;;13.30;4.20;;;10.30;99.90;;;;;;5051659;28;20191;-70
2023/11/06 05:28:25;;;;;;;15.53;4.60;;;10.20;99.90;;;;;;5052309;28;20206;-71
2023/11/06 05:30:51;;;;;;;7.63;4.23;;;10.20;99.90;;;;;;5052007;28;20754;-69
2023/11/06 05:33:17;;;;;;;14.77;4.70;;;10.30;99.90;;;;;;5052278;28;20186;-69
2023/11/06 05:35:42;;;;;;;10.43;4.07;;;10.30;99.90;;;;;;5052047;28;20680;-70
2023/11/06 05:38:08;;;;;;;12.30;4.57;;;10.30;99.90;;;;;;5052413;28;20648;-69
2023/11/06 05:40:33;;;;;;;6.90;3.90;;;10.40;99.90;;;;;;5051932;28;20668;-70
2023/11/06 05:42:59;;;;;;;9.27;4.70;;;10.40;99.90;;;;;;5051982;28;20179;-70
2023/11/06 05:45:25;;;;;;;16.23;4.90;;;10.40;99.90;;;;;;5051947;28;20199;-70
2023/11/06 05:47:51;;;;;;;10.53;4.60;;;10.30;99.90;;;;;;5051722;28;20174;-70
2023/11/06 05:50:17;;;;;;;10.87;4.17;;;10.30;99.90;;;;;;5052012;28;20177;-69
2023/11/06 05:52:43;;;;;;;12.37;4.60;;;10.30;99.90;;;;;;5051656;28;20179;-69
2023/11/06 05:55:08;;;;;;;8.87;3.77;;;10.20;99.90;;;;;;5051544;28;20214;-69
2023/11/06 05:57:34;;;;;;;8.83;5.00;;;10.20;99.90;;;;;;5051578;28;20219;-70
2023/11/06 06:00:00;;;;;;;9.20;4.67;;;10.20;99.90;;;;;;5051421;28;20195;-69
2023/11/06 06:02:27;;;;;;;10.57;5.10;;;10.10;99.90;;;;;;5051868;28;20167;-69
2023/11/06 06:04:54;;;;;;;10.47;4.90;;;10.10;99.90;;;;;;5051433;28;20198;-70
2023/11/06 06:07:19;;;;;;;12.03;4.70;;;10.10;99.90;;;;;;5051505;28;20229;-70
2023/11/06 06:09:45;;;;;;;14.53;4.40;;;10.00;99.90;;;;;;5051478;28;20186;-70
2023/11/06 06:12:11;;;;;;;25.50;4.53;;;10.00;99.90;;;;;;5051132;28;20186;-70
2023/11/06 06:14:37;;;;;;;10.63;4.80;;;9.90;99.90;;;;;;5051412;28;20273;-70
2023/11/06 06:17:03;;;;;;;10.43;4.40;;;9.90;99.90;;;;;;5051073;28;20191;-70
2023/11/06 06:19:31;;;;;;;10.77;4.30;;;9.90;99.90;;;;;;5051397;28;20206;-70
2023/11/06 06:21:57;;;;;;;11.67;5.03;;;9.90;99.90;;;;;;5051357;28;20175;-71
2023/11/06 06:24:23;;;;;;;17.03;4.73;;;9.90;99.90;;;;;;5051427;28;20244;-70
2023/11/06 06:26:48;;;;;;;7.70;3.87;;;9.90;99.90;;;;;;5050733;28;20260;-70
2023/11/06 06:29:14;;;;;;;12.03;4.60;;;9.80;99.90;;;;;;5051609;28;20603;-71
2023/11/06 06:31:40;;;;;;;12.30;4.60;;;9.80;99.90;;;;;;5051503;28;20659;-71
2023/11/06 06:34:06;;;;;;;9.77;4.93;;;9.80;99.90;;;;;;5051380;28;20283;-71
2023/11/06 06:36:31;;;;;;;9.27;4.20;;;9.70;99.90;;;;;;5051013;28;20190;-70
2023/11/06 06:38:57;;;;;;;15.23;4.50;;;9.70;99.90;;;;;;5051032;28;20560;-70
2023/11/06 06:41:23;;;;;;;9.70;4.17;;;9.60;99.90;;;;;;5051626;28;20177;-70
2023/11/06 06:43:49;;;;;;;8.70;4.33;;;9.60;99.90;;;;;;5051055;28;20187;-70
2023/11/06 06:46:15;;;;;;;9.27;4.50;;;9.60;99.90;;;;;;5050431;28;20182;-70
2023/11/06 06:48:41;;;;;;;15.57;4.90;;;9.60;99.90;;;;;;5050888;28;20178;-70
2023/11/06 06:51:06;;;;;;;9.23;4.37;;;9.60;99.90;;;;;;5051933;28;20544;-70
2023/11/06 06:53:34;;;;;;;9.93;4.13;;;9.60;99.90;;;;;;5050722;28;20179;-70
2023/11/06 06:56:00;;;;;;;11.60;4.87;;;9.60;99.90;;;;;;5050593;28;20267;-70
2023/11/06 06:58:26;;;;;;;12.20;4.73;;;9.60;99.90;;;;;;5051092;28;20616;-70
2023/11/06 07:00:52;;;;;;;6.90;3.93;;;9.70;99.90;;;;;;5050541;28;20284;-70
2023/11/06 07:03:18;;;;;;;6.97;4.20;;;9.70;99.90;;;;;;5050850;28;20175;-70
2023/11/06 07:05:44;;;;;;;10.20;4.40;;;9.70;99.90;;;;;;5050481;28;20613;-69
2023/11/06 07:08:10;;;;;;;9.63;4.10;;;9.80;99.90;;;;;;5050652;28;20178;-71
2023/11/06 07:10:35;;;;;;;10.80;4.00;;;9.80;99.90;;;;;;5050773;28;20597;-70
2023/11/06 07:13:03;;;;;;;9.83;4.60;;;9.90;99.90;;;;;;5050761;28;20175;-70
2023/11/06 07:15:28;;;;;;;7.13;3.70;;;9.90;99.90;;;;;;5050586;28;20289;-70
2023/11/06 07:17:56;;;;;;;13.23;4.60;;;9.90;99.90;;;;;;5050518;28;20258;-70
2023/11/06 07:20:22;;;;;;;7.77;3.70;;;10.00;99.90;;;;;;5050541;28;20195;-70
2023/11/06 07:22:49;;;;;;;11.67;4.20;;;10.10;99.90;;;;;;5050184;28;20179;-70
2023/11/06 07:25:16;;;;;;;11.27;4.07;;;10.10;99.90;;;;;;5052772;28;20560;-70
2023/11/06 07:27:42;;;;;;;9.00;4.77;;;10.10;99.90;;;;;;5054281;28;20167;-69
2023/11/06 07:30:09;;;;;;;8.73;4.53;;;10.10;99.90;;;;;;5054482;28;20185;-70
2023/11/06 07:32:34;;;;;;;8.00;3.70;;;10.10;99.90;;;;;;5054413;28;20667;-70
2023/11/06 07:35:00;;;;;;;13.07;4.83;;;10.20;99.90;;;;;;5054390;28;20203;-70
2023/11/06 07:37:26;;;;;;;7.07;3.97;;;10.20;99.90;;;;;;5054137;28;20175;-70
2023/11/06 07:39:52;;;;;;;9.07;4.60;;;10.30;99.90;;;;;;5053864;28;20245;-71
2023/11/06 07:42:17;;;;;;;8.73;3.83;;;10.50;99.90;;;;;;5054212;28;20171;-70
2023/11/06 07:44:43;;;;;;;11.17;3.47;;;10.70;99.90;;;;;;5053930;28;20553;-69
2023/11/06 07:47:08;;;;;;;4.67;3.10;;;11.10;99.90;;;;;;5053732;28;20179;-71
2023/11/06 07:49:35;;;;;;;10.23;3.70;;;11.40;99.90;;;;;;5053721;28;20241;-71
2023/11/06 07:52:06;;;;;;;5.60;3.37;;;11.70;99.90;;;;;;5054015;28;20187;-70
2023/11/06 07:54:32;;;;;;;5.93;3.20;;;11.90;99.90;;;;;;5054007;28;20293;-70
2023/11/06 07:56:58;;;;;;;4.97;3.53;;;12.20;99.90;;;;;;5053501;28;20179;-70
2023/11/06 07:59:23;;;;;;;5.63;3.10;;;12.30;99.90;;;;;;5053895;28;20226;-70
2023/11/06 08:01:49;;;;;;;7.87;3.33;;;12.60;99.90;;;;;;5053366;28;20640;-69
2023/11/06 08:04:16;;;;;;;8.73;3.87;;;12.80;99.90;;;;;;5053113;28;20258;-71
2023/11/06 08:06:42;;;;;;;9.57;3.57;;;13.00;99.90;;;;;;5053360;28;20167;-70
2023/11/06 08:09:08;;;;;;;7.07;3.10;;;13.20;99.90;;;;;;5053720;28;20179;-71
2023/11/06 08:11:35;;;;;;;6.30;3.47;;;13.30;99.90;;;;;;5053614;28;20201;-70
2023/11/06 08:14:02;;;;;;;5.73;3.17;;;13.40;99.90;;;;;;5053574;28;20198;-69
2023/11/06 08:16:35;;;;;;;10.83;3.80;;;13.50;99.90;;;;;;5053492;28;20174;-70
2023/11/06 08:19:01;;;;;;;7.57;3.40;;;13.50;99.90;;;;;;5053162;28;20171;-70
2023/11/06 08:21:27;;;;;;;5.97;3.00;;;13.60;99.90;;;;;;5053595;28;20254;-70
2023/11/06 08:23:52;;;;;;;7.37;3.23;;;13.80;99.90;;;;;;5053501;28;20723;-70
2023/11/06 08:26:20;;;;;;;4.57;3.10;;;13.90;99.90;;;;;;5053136;28;20590;-70
2023/11/06 08:28:46;;;;;;;8.93;2.97;;;14.10;99.90;;;;;;5052982;28;20677;-70
2023/11/06 08:31:14;;;;;;;8.50;2.87;;;14.40;99.90;;;;;;5053289;28;20258;-70
2023/11/06 08:33:40;;;;;;;4.33;3.00;;;14.60;99.90;;;;;;5053024;28;20177;-70
2023/11/06 08:36:06;;;;;;;6.67;2.63;;;14.70;99.90;;;;;;5052674;28;20248;-70
2023/11/06 08:38:31;;;;;;;3.57;2.70;;;14.90;99.90;;;;;;5053097;28;20163;-70
2023/11/06 08:40:57;;;;;;;6.30;2.83;;;15.30;99.90;;;;;;5052893;28;20203;-70
2023/11/06 08:43:23;;;;;;;9.03;3.13;;;15.30;99.90;;;;;;5051736;28;20179;-70
2023/11/06 08:45:48;;;;;;;7.60;2.50;;;15.40;99.90;;;;;;5052544;28;20301;-70
2023/11/06 08:48:14;;;;;;;8.13;3.17;;;15.50;99.90;;;;;;5053108;28;20234;-70
2023/11/06 08:50:39;;;;;;;5.10;2.63;;;15.50;99.90;;;;;;5052904;28;20171;-70
2023/11/06 08:53:05;;;;;;;12.30;3.53;;;15.50;99.90;;;;;;5052961;28;20545;-71
2023/11/06 08:55:31;;;;;;;5.77;3.07;;;15.50;99.90;;;;;;5052740;28;20328;-70
2023/11/06 08:57:56;;;;;;;4.87;2.40;;;15.40;99.90;;;;;;5052730;28;20184;-70
2023/11/06 09:00:22;;;;;;;5.70;2.70;;;15.10;99.90;;;;;;5052534;28;20272;-71
2023/11/06 09:02:48;;;;;;;3.07;2.57;;;15.10;99.90;;;;;;5052423;28;20170;-73
2023/11/06 09:05:19;;;;;;;6.23;2.57;;;15.00;99.90;;;;;;5052824;28;20179;-71
2023/11/06 09:07:45;;;;;;;5.07;2.70;;;15.10;99.90;;;;;;5052068;28;20163;-70
2023/11/06 09:10:11;;;;;;;6.00;2.97;;;15.20;99.90;;;;;;5052927;28;20701;-70
2023/11/06 09:12:37;;;;;;;8.03;2.90;;;15.10;99.90;;;;;;5052552;28;20179;-73
2023/11/06 09:15:03;;;;;;;6.20;3.03;;;15.00;99.90;;;;;;5052402;28;20703;-70
2023/11/06 09:17:29;;;;;;;10.13;3.10;;;14.80;99.90;;;;;;5052338;28;20194;-70
2023/11/06 09:19:55;;;;;;;7.80;2.93;;;14.70;99.90;;;;;;5052305;28;20195;-70
2023/11/06 09:22:20;;;;;;;7.13;2.60;;;14.90;99.90;;;;;;5052427;28;20258;-70
2023/11/06 09:24:46;;;;;;;6.77;2.77;;;15.10;99.90;;;;;;5052397;28;20191;-70
2023/11/06 09:27:11;;;;;;;6.80;2.67;;;15.40;99.90;;;;;;5051916;28;20618;-71
2023/11/06 09:29:37;;;;;;;5.43;2.73;;;15.50;99.90;;;;;;5052149;28;20178;-70
2023/11/06 09:32:03;;;;;;;8.67;2.60;;;15.80;99.90;;;;;;5052176;28;20187;-70
2023/11/06 09:34:29;;;;;;;6.40;2.50;;;15.90;99.90;;;;;;5052035;28;20195;-70
2023/11/06 09:36:57;;;;;;;11.33;3.43;;;16.20;99.90;;;;;;5051716;28;20212;-70
2023/11/06 09:39:23;;;;;;;9.03;3.07;;;16.50;99.90;;;;;;5052066;28;20198;-70
2023/11/06 09:41:49;;;;;;;5.63;2.80;;;16.50;99.90;;;;;;5051662;28;20179;-70
2023/11/06 09:44:15;;;;;;;4.63;2.63;;;16.50;99.90;;;;;;5052345;28;20737;-72
2023/11/06 09:46:40;;;;;;;7.23;2.90;;;16.60;99.90;;;;;;5050726;28;20203;-70
2023/11/06 09:49:11;;;;;;;5.73;3.10;;;16.50;99.90;;;;;;5051843;28;20178;-70
2023/11/06 09:51:41;;;;;;;6.87;2.57;;;16.50;99.90;;;;;;5051711;28;20706;-70
2023/11/06 09:54:10;;;;;;;8.67;2.87;;;16.40;99.90;;;;;;5051658;28;20328;-71
2023/11/06 09:56:42;;;;;;;9.93;2.83;;;16.50;99.90;;;;;;5051230;28;20244;-70
2023/11/06 09:59:08;;;;;;;7.53;2.87;;;16.50;99.90;;;;;;5051560;28;20652;-70
2023/11/06 10:01:35;;;;;;;7.47;2.70;;;16.30;99.90;;;;;;5051147;28;20173;-71
2023/11/06 10:04:01;;;;;;;6.47;2.83;;;15.90;99.90;;;;;;5051498;28;20207;-71
2023/11/06 10:06:27;;;;;;;7.17;2.73;;;15.60;99.90;;;;;;5051458;28;20166;-72
2023/11/06 10:08:53;;;;;;;8.97;3.20;;;15.30;99.90;;;;;;5051177;28;20201;-72
2023/11/06 10:11:25;;;;;;;8.30;3.10;;;15.10;99.90;;;;;;5051596;28;20167;-71
2023/11/06 10:13:54;;;;;;;9.27;3.87;;;14.90;99.90;;;;;;5051218;28;20265;-71
2023/11/06 10:16:22;;;;;;;10.37;3.20;;;14.70;99.90;;;;;;5033274;28;20167;-71
2023/11/06 10:19:07;;;;;;;6.67;3.00;;;14.50;99.90;;;;;;5051187;28;20186;-70
2023/11/06 10:21:34;;;;;;;11.17;3.30;;;14.20;99.90;;;;;;5051197;28;20175;-70
2023/11/06 10:24:01;;;;;;;8.27;4.23;;;14.00;99.90;;;;;;5051281;28;20180;-70
2023/11/06 10:26:31;;;;;;;7.47;3.33;;;13.90;99.90;;;;;;5051031;28;20178;-70
2023/11/06 10:29:19;;;;;;;4.47;2.90;;;13.90;99.90;;;;;;5051126;28;20167;-70
2023/11/06 10:31:47;;;;;;;5.87;3.00;;;13.80;99.90;;;;;;5050977;28;20550;-70
2023/11/06 10:34:27;;;;;;;4.80;3.10;;;13.80;99.90;;;;;;5051284;28;20205;-70
2023/11/06 10:37:10;;;;;;;4.97;3.50;;;13.90;99.90;;;;;;5050594;28;20170;-70
2023/11/06 10:39:40;;;;;;;4.50;2.90;;;13.80;99.90;;;;;;5051036;28;20734;-70
2023/11/06 10:42:08;;;;;;;3.67;2.60;;;13.90;99.90;;;;;;5051134;28;20640;-70
2023/11/06 10:44:36;;;;;;;4.87;2.70;;;14.00;99.90;;;;;;5051033;28;20183;-70
2023/11/06 10:47:07;;;;;;;5.67;2.63;;;14.00;99.90;;;;;;5050921;28;20167;-70
2023/11/06 10:50:00;;;;;;;8.17;3.00;;;13.90;99.90;;;;;;5051622;28;20593;-70
2023/11/06 10:52:28;;;;;;;6.23;2.67;;;13.90;99.90;;;;;;5050965;28;20187;-70
2023/11/06 10:54:56;;;;;;;3.20;2.40;;;13.80;99.90;;;;;;5050818;28;20186;-70
2023/11/06 10:57:23;;;;;;;2.63;2.43;;;13.80;99.90;;;;;;5050949;28;20229;-70
2023/11/06 10:59:51;;;;;;;4.10;2.60;;;13.80;99.90;;;;;;5054779;28;20198;-69
2023/11/06 11:02:44;;;;;;;6.50;3.10;;;13.70;99.90;;;;;;5055169;28;20201;-70
2023/11/06 11:05:14;;;;;;;4.50;2.70;;;13.70;99.90;;;;;;5045178;28;20207;-70
2023/11/06 11:07:41;;;;;;;3.20;2.57;;;13.60;99.90;;;;;;5054508;28;20645;-70
2023/11/06 11:10:14;;;;;;;2.83;2.60;;;13.60;99.90;;;;;;5054949;28;20170;-70
2023/11/06 11:12:41;;;;;;;5.97;2.80;;;13.70;99.90;;;;;;5054883;28;20167;-71
2023/11/06 11:15:08;;;;;;;3.93;2.80;;;13.80;99.90;;;;;;5054618;28;20244;-70
2023/11/06 11:17:37;;;;;;;6.10;2.50;;;13.90;99.90;;;;;;5054407;28;20182;-71
2023/11/06 11:20:06;;;;;;;6.40;3.00;;;14.10;99.90;;;;;;5054541;28;20220;-70
2023/11/06 11:22:32;;;;;;;4.20;2.60;;;14.20;99.90;;;;;;5054535;28;20163;-70
2023/11/06 11:24:59;;;;;;;5.50;2.83;;;14.30;99.90;;;;;;5054185;28;20190;-70
2023/11/06 11:27:30;;;;;;;5.63;2.70;;;14.30;99.90;;;;;;5054205;28;20183;-69
2023/11/06 11:29:56;;;;;;;4.43;2.57;;;14.30;99.90;;;;;;5054376;28;20175;-71
2023/11/06 11:32:23;;;;;;;3.50;2.70;;;14.30;99.90;;;;;;5054429;28;20653;-69
2023/11/06 11:34:48;;;;;;;3.43;2.40;;;14.20;99.90;;;;;;5053925;28;20194;-70
2023/11/06 11:37:26;;;;;;;2.77;2.30;;;14.10;99.90;;;;;;5053925;28;20194;-71
2023/11/06 11:39:52;;;;;;;2.80;2.50;;;14.20;99.90;;;;;;5053964;28;20203;-70
2023/11/06 11:42:18;;;;;;;2.90;2.30;;;14.20;99.90;;;;;;5054089;28;20177;-71
2023/11/06 11:45:06;;;;;;;2.53;2.30;;;14.30;99.90;;;;;;5053917;28;20672;-70
2023/11/06 11:47:47;;;;;;;3.43;2.50;;;14.60;99.90;;;;;;5053551;28;20159;-70
2023/11/06 11:50:36;;;;;;;3.03;2.27;;;14.80;99.90;;;;;;5054306;28;20576;-70
2023/11/06 11:53:02;;;;;;;4.87;2.43;;;14.90;99.90;;;;;;5053938;28;20171;-70
2023/11/06 11:55:37;;;;;;;4.00;2.30;;;14.80;99.90;;;;;;5053804;28;20229;-70
2023/11/06 11:58:14;;;;;;;4.90;2.50;;;14.70;99.90;;;;;;5053746;28;20197;-69
2023/11/06 12:00:44;;;;;;;2.60;2.40;;;14.60;99.90;;;;;;5053086;28;20616;-70
2023/11/06 12:03:16;;;;;;;2.30;2.10;;;14.60;99.90;;;;;;5053702;28;20253;-69
2023/11/06 12:05:43;;;;;;;5.73;2.40;;;14.50;99.90;;;;;;5053289;28;20445;-70
2023/11/06 12:08:19;;;;;;;4.70;2.20;;;14.60;99.90;;;;;;5053462;28;20209;-69
2023/11/06 12:10:47;;;;;;;4.73;2.37;;;14.70;99.90;;;;;;5052733;28;20167;-70
2023/11/06 12:13:18;;;;;;;2.27;2.17;;;14.70;99.90;;;;;;5053528;28;20253;-70
2023/11/06 12:15:45;;;;;;;2.27;2.17;;;14.60;99.90;;;;;;5053255;28;20191;-70
2023/11/06 12:18:12;;;;;;;3.57;2.23;;;14.60;99.90;;;;;;5053539;28;20177;-70
2023/11/06 12:20:39;;;;;;;2.53;2.30;;;14.60;99.90;;;;;;5053266;28;20238;-70
2023/11/06 12:23:05;;;;;;;3.37;1.93;;;14.40;99.90;;;;;;5053215;28;20542;-70
2023/11/06 12:25:35;;;;;;;2.40;2.20;;;14.40;99.90;;;;;;5053191;28;20274;-70
2023/11/06 12:28:12;;;;;;;2.80;2.20;;;14.40;99.90;;;;;;5052574;28;20198;-70
2023/11/06 12:30:43;;;;;;;3.83;2.30;;;14.50;99.90;;;;;;5053282;28;20545;-70
2023/11/06 12:33:23;;;;;;;3.93;2.37;;;14.70;99.90;;;;;;5052970;28;20183;-70
2023/11/06 12:35:53;;;;;;;2.87;2.30;;;14.70;99.90;;;;;;5052931;28;20245;-69
2023/11/06 12:38:32;;;;;;;2.33;2.17;;;14.60;99.90;;;;;;5053268;28;20187;-72
2023/11/06 12:40:58;;;;;;;2.90;2.43;;;14.40;99.90;;;;;;5052910;28;20202;-70
2023/11/06 12:43:27;;;;;;;2.40;2.20;;;14.30;99.90;;;;;;5052921;28;20537;-70
2023/11/06 12:45:56;;;;;;;2.47;2.27;;;14.30;99.90;;;;;;5052498;28;20220;-70
2023/11/06 12:48:29;;;;;;;2.73;2.20;;;14.30;99.90;;;;;;5052872;28;20174;-71